Time;durP1;ratioP1;P1;durP2;ratioP2;P2;SDS_P1;SDS_P2;PMS_P1;PMS_P2;Temp;Humidity;BMP_temperature;BMP_pressure;BME280_temperature;BME280_humidity;BME280_pressure;Samples;Min_cycle;Max_cycle;Signal;HPM_P1;HPM_P2
2022/12/06 00:00:25;;;;;;;8.35;2.15;;;5.40;99.90;;;;;;5110539;28;20475;-80
2022/12/06 00:02:51;;;;;;;8.35;3.03;;;5.30;99.90;;;;;;5128444;28;20054;-80
2022/12/06 00:05:17;;;;;;;7.32;3.25;;;5.30;99.90;;;;;;5059170;28;20136;-80
2022/12/06 00:07:42;;;;;;;9.85;2.63;;;5.30;99.90;;;;;;5127959;28;20046;-80
2022/12/06 00:10:08;;;;;;;8.88;2.58;;;5.30;99.90;;;;;;5128064;28;20754;-80
2022/12/06 00:12:34;;;;;;;5.13;2.70;;;5.30;99.90;;;;;;5129017;28;20135;-80
2022/12/06 00:15:00;;;;;;;11.57;2.70;;;5.30;99.90;;;;;;5092133;28;20445;-80
2022/12/06 00:17:26;;;;;;;10.52;3.00;;;5.30;99.90;;;;;;5092898;28;20058;-80
2022/12/06 00:19:52;;;;;;;7.03;2.92;;;5.30;99.90;;;;;;5109123;28;20493;-80
2022/12/06 00:22:18;;;;;;;6.20;2.42;;;5.30;99.90;;;;;;5076602;28;20050;-80
2022/12/06 00:24:43;;;;;;;7.00;2.40;;;5.30;99.90;;;;;;5109296;28;20426;-80
2022/12/06 00:27:09;;;;;;;9.70;2.22;;;5.30;99.90;;;;;;5109818;28;20043;-80
2022/12/06 00:29:35;;;;;;;7.13;2.20;;;5.30;99.90;;;;;;5076459;28;20091;-80
2022/12/06 00:32:01;;;;;;;9.20;2.50;;;5.30;99.90;;;;;;5128078;28;20455;-80
2022/12/06 00:34:27;;;;;;;8.30;2.85;;;5.30;99.90;;;;;;5129609;28;20493;-80
2022/12/06 00:36:52;;;;;;;8.20;1.95;;;5.30;99.90;;;;;;5128273;28;20039;-80
2022/12/06 00:39:18;;;;;;;8.00;1.45;;;5.30;99.90;;;;;;5093764;28;20478;-80
2022/12/06 00:41:44;;;;;;;5.80;1.55;;;5.30;99.90;;;;;;5127804;28;20035;-80
2022/12/06 00:44:10;;;;;;;9.25;1.58;;;5.30;99.90;;;;;;5093647;28;20115;-80
2022/12/06 00:46:38;;;;;;;6.25;1.65;;;5.30;99.90;;;;;;5110464;28;20394;-80
2022/12/06 00:49:06;;;;;;;4.53;1.10;;;5.30;99.90;;;;;;5128253;28;20478;-81
2022/12/06 00:51:34;;;;;;;7.70;1.95;;;5.30;99.90;;;;;;5129010;28;20035;-80
2022/12/06 00:53:59;;;;;;;10.02;1.23;;;5.30;99.90;;;;;;5091910;28;20055;-79
2022/12/06 00:56:26;;;;;;;2.30;0.90;;;5.30;99.90;;;;;;5128723;28;20491;-79
2022/12/06 00:58:52;;;;;;;3.00;0.77;;;5.30;99.90;;;;;;5126991;27;20078;-80
2022/12/06 01:01:23;;;;;;;5.47;0.88;;;5.30;99.90;;;;;;5128068;28;20035;-79
2022/12/06 01:03:52;;;;;;;4.30;0.90;;;5.30;99.90;;;;;;5110099;27;20054;-79
2022/12/06 01:06:21;;;;;;;4.45;0.95;;;5.20;99.90;;;;;;5130946;27;20051;-80
2022/12/06 01:08:47;;;;;;;4.85;0.60;;;5.20;99.90;;;;;;5113371;27;20072;-80
2022/12/06 01:11:15;;;;;;;3.65;0.93;;;5.20;99.90;;;;;;5078387;27;20046;-79
2022/12/06 01:13:41;;;;;;;3.58;0.65;;;5.20;99.90;;;;;;5131899;27;20043;-80
2022/12/06 01:16:13;;;;;;;3.67;0.50;;;6.30;99.90;;;;;;5130437;27;20039;-80
2022/12/06 01:18:39;;;;;;;3.30;0.38;;;5.20;99.90;;;;;;5131479;27;20046;-80
2022/12/06 01:21:06;;;;;;;3.83;1.00;;;5.20;99.90;;;;;;5095761;27;20433;-80
2022/12/06 01:23:32;;;;;;;1.55;0.60;;;5.20;99.90;;;;;;5112079;27;20043;-80
2022/12/06 01:25:58;;;;;;;2.28;0.50;;;5.20;99.90;;;;;;5113416;27;20061;-80
2022/12/06 01:28:23;;;;;;;8.00;0.70;;;5.80;99.90;;;;;;5130305;27;20035;-80
2022/12/06 01:30:49;;;;;;;2.67;0.40;;;5.20;99.90;;;;;;5096042;27;20043;-79
2022/12/06 01:33:14;;;;;;;3.28;0.52;;;5.10;99.90;;;;;;5095270;27;20039;-80
2022/12/06 01:35:41;;;;;;;2.65;0.47;;;5.20;99.90;;;;;;5131065;27;20058;-80
2022/12/06 01:38:08;;;;;;;2.05;0.55;;;5.20;99.90;;;;;;5130884;27;20054;-80
2022/12/06 01:40:39;;;;;;;2.05;0.52;;;5.10;99.90;;;;;;5111913;27;20072;-80
2022/12/06 01:43:25;;;;;;;5.03;0.90;;;5.70;99.90;;;;;;5131721;27;20074;-80
2022/12/06 01:45:52;;;;;;;11.18;0.73;;;5.20;99.90;;;;;;5129762;27;20047;-80
2022/12/06 01:48:18;;;;;;;3.67;0.82;;;5.20;99.90;;;;;;5112396;27;20035;-80
2022/12/06 01:50:43;;;;;;;2.58;1.25;;;5.10;99.90;;;;;;5095308;27;20039;-80
2022/12/06 01:53:10;;;;;;;2.05;0.70;;;5.10;99.90;;;;;;5094479;27;20410;-80
2022/12/06 01:55:38;;;;;;;2.90;0.90;;;5.10;99.90;;;;;;5095287;27;20366;-80
2022/12/06 01:58:11;;;;;;;3.25;0.90;;;6.30;99.90;;;;;;5093809;27;20136;-79
2022/12/06 02:00:37;;;;;;;3.47;0.50;;;5.10;99.90;;;;;;5095530;27;20118;-80
2022/12/06 02:03:09;;;;;;;3.45;0.70;;;5.20;99.90;;;;;;5094020;27;20039;-80
2022/12/06 02:05:37;;;;;;;3.15;0.70;;;5.10;99.90;;;;;;5112270;27;20050;-80
2022/12/06 02:08:03;;;;;;;3.65;0.45;;;5.10;99.90;;;;;;5111751;27;20433;-79
2022/12/06 02:10:30;;;;;;;2.65;0.68;;;5.50;99.90;;;;;;5094691;27;20047;-79
2022/12/06 02:12:57;;;;;;;2.17;0.60;;;6.00;99.90;;;;;;5078320;27;20553;-79
2022/12/06 02:15:46;;;;;;;5.55;0.70;;;5.30;99.90;;;;;;5094054;27;20047;-79
2022/12/06 02:18:23;;;;;;;4.32;0.85;;;5.10;99.90;;;;;;5095209;27;20757;-80
2022/12/06 02:21:18;;;;;;;2.70;0.98;;;5.60;99.90;;;;;;5093783;27;20039;-79
2022/12/06 02:24:11;;;;;;;1.42;0.80;;;5.10;99.90;;;;;;5110689;27;20090;-79
2022/12/06 02:26:46;;;;;;;1.13;0.50;;;5.10;99.90;;;;;;5095095;27;20074;-80
2022/12/06 02:29:25;;;;;;;4.20;0.80;;;5.00;99.90;;;;;;5110676;27;20125;-80
2022/12/06 02:32:09;;;;;;;9.10;1.17;;;5.00;99.90;;;;;;5111211;27;20039;-80
2022/12/06 02:34:50;;;;;;;1.10;0.60;;;5.00;99.90;;;;;;5094318;27;20051;-80
2022/12/06 02:37:28;;;;;;;4.68;0.80;;;5.00;99.90;;;;;;5110497;27;20070;-80
2022/12/06 02:39:57;;;;;;;2.60;1.08;;;5.50;99.90;;;;;;5095049;27;20213;-80
2022/12/06 02:42:28;;;;;;;2.33;0.80;;;5.00;99.90;;;;;;5111214;27;20406;-80
2022/12/06 02:44:57;;;;;;;4.35;0.82;;;4.90;99.90;;;;;;5111232;27;20387;-80
2022/12/06 02:47:29;;;;;;;4.25;0.82;;;4.90;99.90;;;;;;5111171;27;20561;-80
2022/12/06 02:49:56;;;;;;;1.20;0.70;;;6.00;99.90;;;;;;5093164;27;20043;-79
2022/12/06 02:52:24;;;;;;;0.80;0.47;;;4.90;99.90;;;;;;5095011;27;20066;-80
2022/12/06 02:54:53;;;;;;;4.20;0.90;;;4.90;99.90;;;;;;5110180;27;20057;-80
2022/12/06 02:57:43;;;;;;;4.18;1.08;;;4.90;99.90;;;;;;5110866;27;20059;-80
2022/12/06 03:00:28;;;;;;;5.20;1.65;;;4.90;99.90;;;;;;5093155;27;20061;-80
2022/12/06 03:03:12;;;;;;;3.45;1.00;;;4.90;99.90;;;;;;5109925;27;20095;-79
2022/12/06 03:06:01;;;;;;;3.15;1.10;;;4.90;99.90;;;;;;5094372;27;20062;-80
2022/12/06 03:09:09;;;;;;;8.30;1.13;;;4.80;99.90;;;;;;5110532;27;20123;-80
2022/12/06 03:12:11;;;;;;;7.25;1.13;;;4.80;99.90;;;;;;5110018;27;20151;-80
2022/12/06 03:15:09;;;;;;;5.32;1.25;;;5.00;99.90;;;;;;5082905;27;20518;-80
2022/12/06 03:17:38;;;;;;;5.00;1.60;;;4.80;99.90;;;;;;5089320;27;20074;-80
2022/12/06 03:20:17;;;;;;;3.47;1.05;;;4.80;99.90;;;;;;5093346;27;20043;-80
2022/12/06 03:22:47;;;;;;;4.15;1.30;;;4.80;99.90;;;;;;5110929;27;20088;-80
2022/12/06 03:25:13;;;;;;;4.55;1.10;;;4.80;99.90;;;;;;5109998;27;20387;-80
2022/12/06 03:27:41;;;;;;;3.08;0.75;;;4.80;99.90;;;;;;5110680;27;20407;-79
2022/12/06 03:30:11;;;;;;;2.20;1.00;;;6.10;99.90;;;;;;5093821;27;20372;-80
2022/12/06 03:32:39;;;;;;;4.45;0.88;;;4.80;99.90;;;;;;5109751;27;20045;-80
2022/12/06 03:35:08;;;;;;;1.80;0.80;;;4.80;99.90;;;;;;5093392;27;20047;-80
2022/12/06 03:37:37;;;;;;;3.95;1.08;;;4.80;99.90;;;;;;5091971;27;20039;-80
2022/12/06 03:40:31;;;;;;;2.38;0.75;;;4.80;99.90;;;;;;5094237;27;20438;-80
2022/12/06 03:42:57;;;;;;;1.08;0.68;;;5.40;99.90;;;;;;5089556;27;20142;-80
2022/12/06 03:45:31;;;;;;;3.63;0.73;;;4.80;99.90;;;;;;5109524;27;20047;-80
2022/12/06 03:48:34;;;;;;;5.35;1.10;;;4.70;99.90;;;;;;5093471;27;20043;-80
2022/12/06 03:51:09;;;;;;;6.57;1.08;;;4.80;99.90;;;;;;5024750;28;20521;-80
2022/12/06 03:53:45;;;;;;;2.47;0.50;;;4.70;99.90;;;;;;5097034;28;20540;-80
2022/12/06 03:56:11;;;;;;;4.57;0.50;;;4.70;99.90;;;;;;5093318;27;20125;-80
2022/12/06 03:58:37;;;;;;;1.90;0.50;;;4.70;99.90;;;;;;5108418;28;20138;-80
2022/12/06 04:01:03;;;;;;;1.33;0.50;;;4.70;99.90;;;;;;5093050;27;20042;-80
2022/12/06 04:03:29;;;;;;;1.83;0.65;;;4.70;99.90;;;;;;5092772;28;20431;-80
2022/12/06 04:05:55;;;;;;;2.05;0.30;;;5.80;99.90;;;;;;5093939;28;20481;-80
2022/12/06 04:08:21;;;;;;;1.42;0.73;;;4.70;99.90;;;;;;5109821;28;20043;-80
2022/12/06 04:10:46;;;;;;;1.20;0.57;;;5.30;99.90;;;;;;5093375;28;20070;-80
2022/12/06 04:13:12;;;;;;;1.27;0.35;;;4.70;99.90;;;;;;5109919;28;20039;-80
2022/12/06 04:15:38;;;;;;;2.70;0.50;;;5.90;99.90;;;;;;5091763;28;20119;-80
2022/12/06 04:18:09;;;;;;;1.00;0.38;;;4.60;99.90;;;;;;5109766;28;20072;-80
2022/12/06 04:23:42;;;;;;;1.25;0.47;;;4.60;99.90;;;;;;5071214;28;20064;-80
2022/12/06 04:26:11;;;;;;;1.38;0.38;;;5.10;99.90;;;;;;5110403;28;20390;-80
2022/12/06 04:39:34;;;;;;;2.78;0.52;;;4.10;99.90;;;;;;5096616;27;20051;-80
2022/12/06 04:44:46;;;;;;;1.23;0.50;;;4.00;99.90;;;;;;5114311;27;20039;-80
2022/12/06 04:47:11;;;;;;;3.08;0.40;;;3.80;99.90;;;;;;5112998;27;20458;-79
2022/12/06 04:49:37;;;;;;;2.47;0.65;;;3.80;99.90;;;;;;5113076;27;20091;-80
2022/12/06 04:52:05;;;;;;;2.30;0.60;;;3.70;99.90;;;;;;5113551;27;20046;-79
2022/12/06 04:54:31;;;;;;;8.25;0.60;;;3.60;99.90;;;;;;5095273;27;20051;-79
2022/12/06 04:56:57;;;;;;;0.77;0.40;;;3.50;99.90;;;;;;5113738;27;20054;-80
2022/12/06 04:59:25;;;;;;;2.35;0.57;;;3.40;99.90;;;;;;5094908;27;20051;-79
2022/12/06 05:01:51;;;;;;;2.40;0.80;;;3.40;99.90;;;;;;5113686;27;20126;-79
2022/12/06 05:04:17;;;;;;;1.27;0.60;;;3.30;99.90;;;;;;5112933;27;20053;-79
2022/12/06 05:06:42;;;;;;;2.53;0.55;;;3.30;99.90;;;;;;5079133;27;20039;-79
2022/12/06 05:09:08;;;;;;;2.67;0.60;;;3.20;99.90;;;;;;5113291;27;20051;-79
2022/12/06 05:11:34;;;;;;;1.23;0.60;;;3.20;99.90;;;;;;5078771;27;20122;-79
2022/12/06 05:14:00;;;;;;;0.70;0.40;;;3.10;99.90;;;;;;5096751;27;20046;-79
2022/12/06 05:16:26;;;;;;;5.93;0.50;;;3.10;99.90;;;;;;5094527;27;20043;-79
2022/12/06 05:18:51;;;;;;;3.53;0.90;;;3.10;99.90;;;;;;5113346;27;20120;-79
2022/12/06 05:21:21;;;;;;;2.17;0.80;;;3.10;99.90;;;;;;5078266;27;20402;-79
2022/12/06 05:23:48;;;;;;;1.42;0.80;;;3.10;99.90;;;;;;5131223;27;20095;-80
2022/12/06 05:26:16;;;;;;;2.05;1.15;;;3.10;99.90;;;;;;5112626;27;20043;-80
2022/12/06 05:28:43;;;;;;;8.45;0.88;;;4.10;99.90;;;;;;5111335;27;20491;-80
2022/12/06 05:31:09;;;;;;;8.30;1.10;;;3.20;99.90;;;;;;5079464;27;20036;-80
2022/12/06 05:33:35;;;;;;;2.55;1.00;;;3.30;99.90;;;;;;5111227;27;20372;-80
2022/12/06 05:36:12;;;;;;;4.30;0.93;;;3.30;99.90;;;;;;5112917;27;20039;-80
2022/12/06 05:38:38;;;;;;;4.25;1.13;;;3.30;99.90;;;;;;5094935;27;20039;-80
2022/12/06 05:41:04;;;;;;;5.20;0.90;;;3.30;99.90;;;;;;5112582;27;20042;-80
2022/12/06 05:43:30;;;;;;;2.92;1.23;;;3.20;99.90;;;;;;5095773;27;20413;-81
2022/12/06 05:45:56;;;;;;;1.83;0.98;;;3.20;99.90;;;;;;5077117;27;20049;-80
2022/12/06 05:48:23;;;;;;;3.72;0.98;;;3.20;99.90;;;;;;5095400;27;20043;-80
2022/12/06 05:50:49;;;;;;;8.15;1.10;;;3.10;99.90;;;;;;5110687;27;20482;-80
2022/12/06 05:53:16;;;;;;;8.38;1.00;;;3.10;99.90;;;;;;5112702;27;20042;-82
2022/12/06 05:55:42;;;;;;;2.60;1.52;;;3.00;99.90;;;;;;5077823;27;20355;-81
2022/12/06 05:58:08;;;;;;;7.25;1.17;;;3.00;99.90;;;;;;5076248;27;20383;-82
2022/12/06 06:00:35;;;;;;;7.25;1.20;;;2.90;99.90;;;;;;5078400;27;20049;-81
2022/12/06 06:03:01;;;;;;;4.57;1.15;;;2.90;99.90;;;;;;5077543;27;20043;-82
2022/12/06 06:05:27;;;;;;;3.83;1.25;;;2.80;99.90;;;;;;5095038;27;20043;-82
2022/12/06 06:07:53;;;;;;;2.75;1.10;;;2.90;99.90;;;;;;5076982;27;20035;-82
2022/12/06 06:10:20;;;;;;;4.32;1.40;;;2.90;99.90;;;;;;5112266;27;20048;-83
2022/12/06 06:12:46;;;;;;;4.35;1.60;;;2.90;99.90;;;;;;5111145;27;20043;-82
2022/12/06 06:15:12;;;;;;;5.40;1.63;;;3.00;99.90;;;;;;5061181;27;20047;-81
2022/12/06 06:17:39;;;;;;;4.50;1.30;;;3.10;99.90;;;;;;5111329;27;20333;-83
2022/12/06 06:20:06;;;;;;;9.20;1.48;;;3.10;99.90;;;;;;5093979;27;20126;-81
2022/12/06 06:22:33;;;;;;;3.90;1.60;;;3.20;99.90;;;;;;5094926;27;20112;-82
2022/12/06 06:24:59;;;;;;;2.83;1.40;;;3.20;99.90;;;;;;5094049;27;20367;-82
2022/12/06 06:27:25;;;;;;;8.13;1.52;;;3.20;99.90;;;;;;5094984;27;20490;-82
2022/12/06 06:29:51;;;;;;;4.60;1.55;;;3.30;99.90;;;;;;5110358;27;20078;-82
2022/12/06 06:32:16;;;;;;;4.15;1.50;;;3.30;99.90;;;;;;5095023;27;20476;-82
2022/12/06 06:34:42;;;;;;;3.42;1.25;;;3.30;99.90;;;;;;5094267;27;20583;-82
2022/12/06 06:37:08;;;;;;;5.40;1.50;;;3.30;99.90;;;;;;5093766;27;20039;-82
2022/12/06 06:39:33;;;;;;;4.68;1.60;;;3.20;99.90;;;;;;5094412;27;20043;-81
2022/12/06 06:41:59;;;;;;;3.97;1.73;;;3.10;99.90;;;;;;5110288;27;20043;-82
2022/12/06 06:44:24;;;;;;;6.15;2.10;;;3.10;99.90;;;;;;5094622;27;20153;-82
2022/12/06 06:46:50;;;;;;;5.70;2.03;;;3.00;99.90;;;;;;5092829;27;20047;-81
2022/12/06 06:49:17;;;;;;;4.95;1.48;;;2.90;99.90;;;;;;5094660;27;20469;-80
2022/12/06 06:51:44;;;;;;;4.07;1.73;;;2.80;99.90;;;;;;5094128;27;20082;-83
2022/12/06 06:54:10;;;;;;;5.32;1.48;;;2.80;99.90;;;;;;5093230;27;20088;-83
2022/12/06 06:56:36;;;;;;;4.97;1.73;;;2.70;99.90;;;;;;5094116;27;20517;-80
2022/12/06 06:59:01;;;;;;;2.28;1.20;;;2.60;99.90;;;;;;5109547;27;20061;-80
2022/12/06 07:01:27;;;;;;;5.93;1.33;;;2.60;99.90;;;;;;5094111;27;20138;-80
2022/12/06 07:03:53;;;;;;;2.40;1.30;;;3.60;99.90;;;;;;5058973;27;20039;-80
2022/12/06 07:06:19;;;;;;;7.20;1.90;;;2.40;99.90;;;;;;5094570;27;20067;-83
2022/12/06 07:08:48;;;;;;;3.65;1.63;;;2.30;99.90;;;;;;5093138;27;20042;-83
2022/12/06 07:11:14;;;;;;;3.08;1.40;;;2.30;99.90;;;;;;5093650;27;20075;-81
2022/12/06 07:13:42;;;;;;;2.58;1.25;;;2.20;99.90;;;;;;5094040;27;20134;-80
2022/12/06 07:16:13;;;;;;;5.63;1.58;;;2.10;99.90;;;;;;5093417;27;20117;-80
2022/12/06 07:18:39;;;;;;;4.13;1.50;;;3.40;99.90;;;;;;5112086;27;20043;-81
2022/12/06 07:21:07;;;;;;;3.17;1.90;;;2.00;99.90;;;;;;5093012;27;20039;-82
2022/12/06 07:23:34;;;;;;;5.90;2.30;;;3.00;99.90;;;;;;5110826;27;20121;-79
2022/12/06 07:26:10;;;;;;;5.43;2.03;;;2.60;99.90;;;;;;5093628;27;20096;-78
2022/12/06 07:28:42;;;;;;;7.22;2.20;;;1.90;99.90;;;;;;5110043;27;20533;-78
2022/12/06 07:31:16;;;;;;;7.32;2.83;;;1.90;99.90;;;;;;5110286;27;20051;-78
2022/12/06 07:33:43;;;;;;;8.13;3.58;;;1.80;99.90;;;;;;5092271;27;20046;-79
2022/12/06 07:36:10;;;;;;;9.43;4.25;;;1.80;99.90;;;;;;5093668;27;20043;-78
2022/12/06 07:38:36;;;;;;;7.03;3.17;;;1.70;99.90;;;;;;5092228;28;20391;-78
2022/12/06 07:44:59;;;;;;;10.38;3.75;;;2.80;99.90;;;;;;5110352;27;20110;-78
2022/12/06 07:46:39;;;;;;;5.72;2.83;;;2.50;99.90;;;;;;5108950;27;20074;-78
2022/12/06 07:49:05;;;;;;;5.40;2.50;;;1.70;99.90;;;;;;5110669;27;20047;-78
2022/12/06 07:51:31;;;;;;;5.65;3.00;;;1.70;99.90;;;;;;5109383;27;20051;-78
2022/12/06 07:53:57;;;;;;;7.53;3.28;;;1.70;99.90;;;;;;5092960;28;20054;-78
2022/12/06 07:56:23;;;;;;;4.78;2.65;;;2.20;99.90;;;;;;5110086;28;20039;-79
2022/12/06 07:58:49;;;;;;;8.68;3.25;;;1.70;99.90;;;;;;5088035;28;20087;-79
2022/12/06 08:01:15;;;;;;;6.95;2.60;;;1.80;99.90;;;;;;5089554;28;20079;-79
2022/12/06 08:03:40;;;;;;;5.07;2.80;;;1.90;99.90;;;;;;5105649;28;20040;-79
2022/12/06 08:06:07;;;;;;;10.63;3.92;;;2.00;99.90;;;;;;5073124;28;20043;-80
2022/12/06 08:08:33;;;;;;;5.55;3.28;;;2.10;99.90;;;;;;5089233;28;20444;-79
2022/12/06 08:11:04;;;;;;;5.97;3.13;;;2.20;99.90;;;;;;5089790;28;20046;-79
2022/12/06 08:13:31;;;;;;;7.18;3.25;;;2.40;99.90;;;;;;5107076;28;20054;-79
2022/12/06 08:15:57;;;;;;;4.68;2.35;;;2.50;99.90;;;;;;5109823;28;20491;-79
2022/12/06 08:18:24;;;;;;;8.70;3.50;;;2.60;99.90;;;;;;5093510;28;20043;-80
2022/12/06 08:20:51;;;;;;;7.53;3.20;;;2.70;99.90;;;;;;5109652;28;20047;-79
2022/12/06 08:23:18;;;;;;;5.40;3.15;;;3.40;99.90;;;;;;5111194;28;20040;-80
2022/12/06 08:25:44;;;;;;;5.05;2.42;;;3.40;99.90;;;;;;5092874;28;20402;-80
2022/12/06 08:28:09;;;;;;;5.35;2.72;;;3.30;99.90;;;;;;5110983;28;20054;-80
2022/12/06 08:30:38;;;;;;;6.75;3.10;;;3.70;99.90;;;;;;5110156;28;20486;-79
2022/12/06 08:33:04;;;;;;;8.43;2.72;;;3.20;99.90;;;;;;5109780;28;20047;-80
2022/12/06 08:35:30;;;;;;;4.53;1.92;;;3.40;99.90;;;;;;5093301;28;20054;-80
2022/12/06 08:37:55;;;;;;;4.72;2.58;;;4.10;99.90;;;;;;5092525;28;20043;-80
2022/12/06 08:40:21;;;;;;;4.47;1.95;;;3.20;99.90;;;;;;5110674;28;20125;-80
2022/12/06 08:42:47;;;;;;;7.80;2.00;;;3.30;99.90;;;;;;5075336;28;20039;-80
2022/12/06 08:45:12;;;;;;;3.90;1.98;;;3.30;99.90;;;;;;5076740;28;20047;-80
2022/12/06 08:47:38;;;;;;;4.53;2.03;;;3.70;99.90;;;;;;5109610;28;20052;-80
2022/12/06 08:50:05;;;;;;;7.18;2.33;;;4.00;99.90;;;;;;5093143;28;20050;-80
2022/12/06 08:52:31;;;;;;;7.47;2.60;;;3.40;99.90;;;;;;5110225;28;20384;-80
2022/12/06 08:54:56;;;;;;;5.68;2.78;;;4.30;99.90;;;;;;5092129;28;20131;-80
2022/12/06 08:57:22;;;;;;;5.38;2.47;;;3.40;99.90;;;;;;5076037;28;20044;-79
2022/12/06 08:59:48;;;;;;;7.65;3.80;;;3.40;99.90;;;;;;5074515;28;20089;-79
2022/12/06 09:02:13;;;;;;;5.30;2.63;;;3.70;99.90;;;;;;5093738;28;20088;-80
2022/12/06 09:04:39;;;;;;;6.70;2.28;;;3.40;99.90;;;;;;5092437;28;20097;-79
2022/12/06 09:07:05;;;;;;;7.03;2.70;;;4.30;99.90;;;;;;5075472;28;20134;-80
2022/12/06 09:09:30;;;;;;;8.95;2.67;;;4.30;99.90;;;;;;5092714;28;20051;-79
2022/12/06 09:11:56;;;;;;;4.55;2.47;;;3.70;99.90;;;;;;5108708;28;20032;-80
2022/12/06 09:14:21;;;;;;;5.15;1.80;;;3.80;99.90;;;;;;5075717;28;20039;-80
2022/12/06 09:16:48;;;;;;;3.53;1.40;;;3.80;99.90;;;;;;5091454;28;20047;-80
2022/12/06 09:19:14;;;;;;;4.88;2.28;;;3.80;99.90;;;;;;5109657;28;20048;-80
2022/12/06 09:21:41;;;;;;;9.38;1.95;;;3.80;99.90;;;;;;5075005;28;20134;-80
2022/12/06 09:24:13;;;;;;;3.40;2.05;;;3.80;99.90;;;;;;5092352;28;20046;-80
2022/12/06 09:26:38;;;;;;;6.20;1.90;;;3.80;99.90;;;;;;5108600;28;20506;-80
2022/12/06 09:29:04;;;;;;;9.93;4.78;;;3.80;99.90;;;;;;5108217;28;20044;-80
2022/12/06 09:31:30;;;;;;;6.15;2.00;;;3.90;99.90;;;;;;5075492;28;20036;-80
2022/12/06 09:33:56;;;;;;;2.33;1.52;;;5.30;99.90;;;;;;5091364;28;20048;-80
2022/12/06 09:36:25;;;;;;;4.15;1.92;;;4.10;99.90;;;;;;5075839;28;20561;-80
2022/12/06 09:39:04;;;;;;;4.63;2.30;;;4.20;99.90;;;;;;5108243;28;20055;-80
2022/12/06 09:41:55;;;;;;;9.75;2.05;;;4.40;99.90;;;;;;5091550;28;20062;-80
2022/12/06 09:44:46;;;;;;;8.68;2.22;;;4.60;99.90;;;;;;5109517;28;20398;-80
2022/12/06 09:47:42;;;;;;;9.07;1.95;;;4.80;99.90;;;;;;5108320;28;20249;-80
2022/12/06 09:50:32;;;;;;;9.82;2.05;;;4.80;99.90;;;;;;5108350;28;20074;-80
2022/12/06 09:53:21;;;;;;;7.65;2.22;;;4.90;99.90;;;;;;5109197;28;20043;-80
2022/12/06 09:56:10;;;;;;;8.63;1.70;;;4.90;99.90;;;;;;5090919;28;20506;-80
2022/12/06 09:58:45;;;;;;;7.47;3.20;;;4.90;99.90;;;;;;5091039;28;20177;-80
2022/12/06 10:01:31;;;;;;;6.05;1.90;;;5.00;99.90;;;;;;5109332;28;20078;-80
2022/12/06 10:04:12;;;;;;;5.93;1.95;;;5.10;99.90;;;;;;5091169;28;20054;-80
2022/12/06 10:06:59;;;;;;;6.15;2.67;;;5.20;99.90;;;;;;5109269;28;20548;-80
2022/12/06 10:09:50;;;;;;;8.10;2.35;;;5.30;99.90;;;;;;5108608;28;20558;-80
2022/12/06 10:12:24;;;;;;;13.85;2.67;;;5.50;99.90;;;;;;5107569;28;20044;-80
2022/12/06 10:14:50;;;;;;;8.63;2.70;;;5.50;99.90;;;;;;5091711;28;20135;-80
2022/12/06 10:17:54;;;;;;;4.78;2.25;;;5.70;99.90;;;;;;5107621;28;20047;-80
2022/12/06 10:20:49;;;;;;;3.85;1.77;;;5.70;99.90;;;;;;5102982;28;20444;-80
2022/12/06 10:23:31;;;;;;;6.40;1.42;;;5.90;99.90;;;;;;5091178;28;20474;-80
2022/12/06 10:26:04;;;;;;;9.35;2.92;;;5.90;99.90;;;;;;5090780;28;20131;-80
2022/12/06 10:28:47;;;;;;;12.93;1.85;;;5.90;99.90;;;;;;5090974;28;20599;-81
2022/12/06 10:31:26;;;;;;;5.85;1.90;;;5.90;99.90;;;;;;5108172;28;20050;-80
2022/12/06 10:33:59;;;;;;;3.40;1.33;;;6.00;99.90;;;;;;5107716;28;20046;-81
2022/12/06 10:36:41;;;;;;;7.47;1.45;;;5.90;99.90;;;;;;5090965;28;20056;-80
2022/12/06 10:39:35;;;;;;;4.63;1.42;;;5.80;99.90;;;;;;5107015;28;20528;-80
2022/12/06 10:42:08;;;;;;;2.38;1.15;;;5.90;99.90;;;;;;5089927;28;20184;-80
2022/12/06 10:44:49;;;;;;;4.93;1.48;;;6.00;99.90;;;;;;5091091;28;20047;-80
2022/12/06 10:47:26;;;;;;;9.23;1.42;;;6.00;99.90;;;;;;5090152;28;20074;-80
2022/12/06 10:50:13;;;;;;;4.10;1.58;;;6.10;99.90;;;;;;5091418;28;20040;-81
2022/12/06 10:52:42;;;;;;;4.32;1.45;;;6.20;99.90;;;;;;5108111;28;20090;-81
2022/12/06 10:55:07;;;;;;;6.38;1.23;;;6.10;99.90;;;;;;5089470;28;20188;-82
2022/12/06 10:57:36;;;;;;;5.80;1.15;;;6.20;99.90;;;;;;5107585;28;20240;-81
2022/12/06 11:00:14;;;;;;;2.20;0.95;;;6.20;99.90;;;;;;5106217;28;20060;-81
2022/12/06 11:03:03;;;;;;;1.73;0.93;;;6.20;99.90;;;;;;5090457;28;20044;-81
2022/12/06 11:05:52;;;;;;;3.30;0.80;;;6.10;99.90;;;;;;5107638;28;20079;-81
2022/12/06 11:08:33;;;;;;;5.35;1.35;;;6.00;99.90;;;;;;5089494;28;20122;-81
2022/12/06 11:11:00;;;;;;;5.40;2.20;;;6.00;99.90;;;;;;5091463;28;20059;-79
2022/12/06 11:13:41;;;;;;;2.40;0.77;;;6.00;99.90;;;;;;5107976;28;20365;-79
2022/12/06 11:16:21;;;;;;;5.95;1.10;;;6.20;99.90;;;;;;5107335;28;20052;-80
2022/12/06 11:18:48;;;;;;;5.43;1.40;;;6.40;99.90;;;;;;5091217;28;20539;-79
2022/12/06 11:21:28;;;;;;;3.67;1.23;;;6.50;99.90;;;;;;5107352;28;20048;-81
2022/12/06 11:24:14;;;;;;;5.38;0.80;;;6.70;99.90;;;;;;5108048;28;20120;-82
2022/12/06 11:26:45;;;;;;;6.57;1.10;;;6.80;99.90;;;;;;5108087;28;20429;-82
2022/12/06 11:29:13;;;;;;;3.58;0.85;;;7.10;99.90;;;;;;5107489;28;20052;-82
2022/12/06 11:31:44;;;;;;;4.00;1.63;;;6.70;99.90;;;;;;5108225;28;20044;-81
2022/12/06 11:34:21;;;;;;;5.68;1.13;;;6.60;99.90;;;;;;5090627;28;20043;-81
2022/12/06 11:36:50;;;;;;;12.20;0.88;;;6.60;99.90;;;;;;5090992;28;20126;-81
2022/12/06 11:39:17;;;;;;;9.27;1.00;;;6.60;99.90;;;;;;5090600;28;20146;-81
2022/12/06 11:41:46;;;;;;;2.28;0.93;;;6.70;99.90;;;;;;5073412;28;20075;-81
2022/12/06 11:44:20;;;;;;;2.38;1.30;;;8.00;99.90;;;;;;5091069;28;20044;-81
2022/12/06 11:46:51;;;;;;;3.97;1.00;;;6.80;99.90;;;;;;5107052;28;20105;-80
2022/12/06 11:49:25;;;;;;;2.78;1.00;;;6.80;99.90;;;;;;5091162;28;20047;-80
2022/12/06 11:51:52;;;;;;;4.15;1.30;;;7.80;99.90;;;;;;5108270;28;20040;-81
2022/12/06 11:54:21;;;;;;;3.80;1.42;;;7.30;99.90;;;;;;5090451;28;20036;-82
2022/12/06 11:56:47;;;;;;;3.42;1.05;;;7.10;99.90;;;;;;5107384;28;20491;-80
2022/12/06 11:59:27;;;;;;;3.42;0.98;;;7.40;99.90;;;;;;5089213;28;20138;-81
2022/12/06 12:01:55;;;;;;;2.72;1.08;;;7.00;99.90;;;;;;5107868;28;20134;-82
2022/12/06 12:04:38;;;;;;;3.58;1.20;;;7.10;99.90;;;;;;5106852;28;20047;-82
2022/12/06 12:07:16;;;;;;;1.85;1.10;;;7.30;99.90;;;;;;5091030;28;20044;-82
2022/12/06 12:10:00;;;;;;;2.80;1.08;;;7.30;99.90;;;;;;5108021;28;20042;-82
2022/12/06 12:15:33;;;;;;;1.83;1.58;;;7.50;99.90;;;;;;5093564;28;20117;-82
2022/12/06 12:18:00;;;;;;;1.55;0.88;;;7.50;99.90;;;;;;5089937;28;20044;-81
2022/12/06 12:20:38;;;;;;;3.90;1.00;;;7.50;99.90;;;;;;5106713;28;20536;-82
2022/12/06 12:23:15;;;;;;;5.15;1.13;;;7.40;99.90;;;;;;5107308;28;20099;-82
2022/12/06 12:25:43;;;;;;;5.85;1.23;;;8.30;99.90;;;;;;5106744;28;20058;-81
2022/12/06 12:28:37;;;;;;;3.97;1.00;;;7.20;99.90;;;;;;5090333;28;20483;-81
2022/12/06 12:31:29;;;;;;;3.45;0.80;;;7.30;99.90;;;;;;5086729;28;20048;-82
2022/12/06 12:34:18;;;;;;;3.67;0.80;;;7.20;99.90;;;;;;5101293;28;20056;-82
2022/12/06 12:36:53;;;;;;;2.42;0.80;;;7.30;99.90;;;;;;5107438;28;20426;-82
2022/12/06 12:39:43;;;;;;;5.65;1.52;;;8.00;99.90;;;;;;5106472;28;20131;-81
2022/12/06 12:42:31;;;;;;;2.13;0.77;;;7.20;99.90;;;;;;5106260;28;20048;-82
2022/12/06 12:45:04;;;;;;;1.98;0.70;;;7.90;99.90;;;;;;5090101;28;20040;-82
2022/12/06 12:47:30;;;;;;;3.60;1.38;;;7.20;99.90;;;;;;5089711;28;20048;-82
2022/12/06 12:50:17;;;;;;;3.17;0.93;;;7.20;99.90;;;;;;5089364;28;20065;-80
2022/12/06 12:52:43;;;;;;;4.07;1.00;;;7.10;99.90;;;;;;5106646;28;20086;-81
2022/12/06 12:55:19;;;;;;;2.17;1.17;;;7.70;99.90;;;;;;5105494;28;20075;-80
2022/12/06 12:57:50;;;;;;;10.05;3.83;;;7.10;99.90;;;;;;5106418;28;20054;-82
2022/12/06 13:00:18;;;;;;;3.22;1.25;;;7.10;99.90;;;;;;5106353;28;20056;-81
2022/12/06 13:02:51;;;;;;;3.80;1.23;;;7.10;99.90;;;;;;5110692;28;20104;-80
2022/12/06 13:05:28;;;;;;;;;;;7.20;99.90;;;;;;5111182;28;20086;-84
2022/12/06 13:08:18;;;;;;;7.15;1.25;;;6.80;99.90;;;;;;5110219;28;20264;-80
2022/12/06 13:10:47;;;;;;;3.85;1.00;;;7.10;99.90;;;;;;5109410;28;20047;-80
2022/12/06 13:13:25;;;;;;;4.43;0.95;;;7.70;99.90;;;;;;5091865;28;20040;-80
2022/12/06 13:15:54;;;;;;;5.63;1.50;;;7.10;99.90;;;;;;5109742;28;20059;-80
2022/12/06 13:18:41;;;;;;;2.25;1.02;;;7.10;99.90;;;;;;5109367;28;20040;-80
2022/12/06 13:21:19;;;;;;;1.45;0.70;;;7.20;99.90;;;;;;5091910;28;20513;-80
2022/12/06 13:23:51;;;;;;;2.80;0.98;;;7.10;99.90;;;;;;5109168;28;20043;-80
2022/12/06 13:26:24;;;;;;;2.78;1.00;;;7.20;99.90;;;;;;5092068;28;20127;-80
2022/12/06 13:28:54;;;;;;;3.22;1.40;;;7.20;99.90;;;;;;5109053;28;20077;-80
2022/12/06 13:31:25;;;;;;;2.47;1.52;;;8.00;99.90;;;;;;5109107;28;20035;-80
2022/12/06 13:33:59;;;;;;;2.88;1.05;;;8.30;99.90;;;;;;5108469;28;20130;-80
2022/12/06 13:36:27;;;;;;;4.00;1.10;;;7.10;99.90;;;;;;5109288;28;20036;-80
2022/12/06 13:38:55;;;;;;;4.10;1.00;;;8.10;99.90;;;;;;5108692;28;20043;-80
2022/12/06 13:45:01;;;;;;;6.57;1.25;;;7.60;99.90;;;;;;5109467;28;20047;-80